createdAt,value
2022-10-04T00:08:49.833Z,1.80
2022-10-04T00:19:20.963Z,1.55
2022-10-04T00:29:38.665Z,1.45
2022-10-04T00:39:47.168Z,1.30
2022-10-04T00:49:56.220Z,1.67
2022-10-04T01:00:08.105Z,1.15
2022-10-04T01:10:23.518Z,1.00
2022-10-04T01:20:38.054Z,1.10
2022-10-04T01:30:40.042Z,2.10
2022-10-04T01:40:53.467Z,1.13
2022-10-04T01:51:04.737Z,1.27
2022-10-04T02:01:11.877Z,0.88
2022-10-04T02:11:20.288Z,1.30
2022-10-04T02:21:23.979Z,0.88
2022-10-04T02:31:46.105Z,1.02
2022-10-04T02:41:53.971Z,0.68
2022-10-04T02:52:04.761Z,0.70
2022-10-04T03:02:29.412Z,0.60
2022-10-04T03:12:33.650Z,1.52
2022-10-04T03:22:35.479Z,0.60
2022-10-04T03:32:38.641Z,0.60
2022-10-04T03:42:40.981Z,0.75
2022-10-04T03:52:50.700Z,0.52
2022-10-04T04:03:03.794Z,0.70
2022-10-04T04:13:11.053Z,0.50
2022-10-04T04:23:15.854Z,0.50
2022-10-04T04:33:41.700Z,0.50
2022-10-04T04:43:44.864Z,0.57
2022-10-04T04:53:47.978Z,0.50
2022-10-04T05:04:08.629Z,0.70
2022-10-04T05:14:14.091Z,0.93
2022-10-04T05:24:21.813Z,0.60
2022-10-04T05:34:30.489Z,0.57
2022-10-04T05:44:44.695Z,1.08
2022-10-04T05:54:46.559Z,1.13
2022-10-04T06:05:29.190Z,1.00
2022-10-04T06:15:49.499Z,1.00
2022-10-04T06:25:57.118Z,1.17
2022-10-04T06:36:17.020Z,1.10
2022-10-04T06:46:37.761Z,0.90
2022-10-04T06:57:13.253Z,0.93
2022-10-04T07:07:35.753Z,1.02
2022-10-04T07:17:42.036Z,0.82
2022-10-04T07:28:27.731Z,1.20
2022-10-04T07:38:34.135Z,1.10
2022-10-04T07:48:40.725Z,1.23
2022-10-04T07:59:20.020Z,1.25
2022-10-04T08:09:30.828Z,1.25
2022-10-04T08:19:41.563Z,2.03
2022-10-04T08:29:51.524Z,1.17
2022-10-04T08:40:24.439Z,1.25
2022-10-04T08:50:35.088Z,1.90
2022-10-04T09:00:51.903Z,1.10
2022-10-04T09:11:36.045Z,1.20
2022-10-04T09:21:46.676Z,1.20
2022-10-04T09:31:51.230Z,1.50
2022-10-04T09:41:56.060Z,1.00
2022-10-04T09:52:31.671Z,1.20
2022-10-04T10:03:15.546Z,0.77
2022-10-04T10:13:43.045Z,1.00
2022-10-04T10:24:06.170Z,1.42
2022-10-04T10:34:16.875Z,0.95
2022-10-04T10:44:46.338Z,0.70
2022-10-04T10:54:48.510Z,0.80
2022-10-04T11:04:55.754Z,0.77
2022-10-04T11:15:38.421Z,1.02
2022-10-04T11:26:05.191Z,0.80
2022-10-04T11:36:16.129Z,1.10
2022-10-04T11:46:55.451Z,0.95
2022-10-04T11:57:14.966Z,0.93
2022-10-04T12:07:40.871Z,2.35
2022-10-04T12:18:06.159Z,8.38
2022-10-04T12:28:29.205Z,6.90
2022-10-04T12:38:57.524Z,9.32
2022-10-04T12:49:31.773Z,3.47
2022-10-04T12:59:44.274Z,5.63
2022-10-04T13:10:23.464Z,2.42
2022-10-04T13:20:52.766Z,2.45
2022-10-04T13:31:04.229Z,2.47
2022-10-04T13:41:43.583Z,2.95
2022-10-04T13:52:55.462Z,1.50
2022-10-04T14:03:16.196Z,1.75
2022-10-04T14:13:53.402Z,1.40
2022-10-04T14:24:14.019Z,1.95
2022-10-04T14:34:35.732Z,2.70
2022-10-04T14:44:46.637Z,1.75
2022-10-04T14:54:52.379Z,1.20
2022-10-04T15:05:22.842Z,0.95
2022-10-04T15:15:36.288Z,1.05
2022-10-04T15:25:48.661Z,1.20
2022-10-04T15:35:59.520Z,1.90
2022-10-04T15:46:26.825Z,1.98
2022-10-04T15:56:44.636Z,1.45
2022-10-04T16:06:55.774Z,0.93
2022-10-04T16:17:38.843Z,1.30
2022-10-04T16:27:40.645Z,1.30
2022-10-04T16:37:56.531Z,1.02
2022-10-04T16:48:15.058Z,0.70
2022-10-04T16:58:30.669Z,1.02
2022-10-04T17:08:49.833Z,1.02
2022-10-04T17:18:52.021Z,1.08
2022-10-04T17:29:21.722Z,0.95
2022-10-04T17:39:42.087Z,0.80
2022-10-04T17:50:13.330Z,1.75
2022-10-04T18:00:18.867Z,0.80
2022-10-04T18:10:37.947Z,0.82
2022-10-04T18:21:02.170Z,1.40
2022-10-04T18:31:30.388Z,1.17
2022-10-04T18:41:58.285Z,0.98
2022-10-04T18:52:12.158Z,1.42
2022-10-04T19:02:47.939Z,1.38
2022-10-04T19:12:57.236Z,0.90
2022-10-04T19:23:28.044Z,1.50
2022-10-04T19:33:36.061Z,1.13
2022-10-04T19:43:53.931Z,1.42
2022-10-04T19:54:03.798Z,1.80
2022-10-04T20:04:35.350Z,2.53
2022-10-04T20:14:40.014Z,1.30
2022-10-04T20:24:41.746Z,1.90
2022-10-04T20:34:43.532Z,1.70
2022-10-04T20:44:55.151Z,1.75
2022-10-04T20:54:58.916Z,1.90
2022-10-04T21:05:26.014Z,1.63
2022-10-04T21:15:27.868Z,1.63
2022-10-04T21:25:32.080Z,1.77
2022-10-04T21:35:33.872Z,1.20
2022-10-04T21:45:35.669Z,1.63
2022-10-04T21:55:37.488Z,1.52
2022-10-04T22:05:39.288Z,1.55
2022-10-04T22:15:41.595Z,1.65
2022-10-04T22:25:43.374Z,1.48
2022-10-04T22:35:45.128Z,1.55
2022-10-04T22:45:46.909Z,1.00
2022-10-04T22:55:52.401Z,1.00
2022-10-04T23:05:54.200Z,1.00
2022-10-04T23:16:00.399Z,1.17
2022-10-04T23:26:02.296Z,1.00
2022-10-04T23:36:09.455Z,1.00
2022-10-04T23:46:16.705Z,1.05
2022-10-04T23:56:23.203Z,0.95
